CheckWX is a tool to help pilots better visualize weather data.  It is not intended as a substitute for an official pre-flight weather briefing.

09:10:04 UTC

KMKS METAR
Berkeley County Airport
Moncks Corner, South Carolina, USA
Current

35 mins ago

KMKS 230835Z AUTO 00000KT 10SM CLR 15/15 A3009 RMK AO2
Observed
Sep-23 @ 08:35 UTC
Visibility
10 SM
Flight Rules
VFR
Cloud Levels
  • Clear skies
Temperature
15°C / 59°F
Dewpoint
15°C / 59°F
Humidity
100%
Altimeter
30.09" Hg
Pressure
1018.92 hPa
Previous

55 mins ago

KMKS 230815Z AUTO 00000KT 10SM CLR 16/15 A3008 RMK AO2
Observed
Sep-23 @ 08:15 UTC
Visibility
10 SM
Flight Rules
VFR
Cloud Levels
  • Clear skies
Temperature
16°C / 61°F
Dewpoint
15°C / 59°F
Humidity
94%
Altimeter
30.08" Hg
Pressure
1018.62 hPa
Previous

1 hour ago

KMKS 230755Z AUTO 00000KT 7SM CLR 16/16 A3008 RMK AO2
Observed
Sep-23 @ 07:55 UTC
Visibility
7 SM
Flight Rules
VFR
Cloud Levels
  • Clear skies
Temperature
16°C / 61°F
Dewpoint
16°C / 61°F
Humidity
100%
Altimeter
30.08" Hg
Pressure
1018.62 hPa